createdAt,value
2022-09-22T00:03:17.709Z,100985.97
2022-09-22T00:08:41.967Z,100986.00
2022-09-22T00:14:16.399Z,100986.88
2022-09-22T00:19:38.492Z,100979.97
2022-09-22T00:25:00.565Z,100977.44
2022-09-22T00:30:22.368Z,100984.97
2022-09-22T00:35:44.151Z,100978.81
2022-09-22T00:41:07.498Z,100980.41
2022-09-22T00:46:29.327Z,100986.34
2022-09-22T00:51:51.426Z,100976.06
2022-09-22T00:57:19.030Z,100967.59
2022-09-22T01:02:41.083Z,100966.72
2022-09-22T01:08:03.506Z,100980.44
2022-09-22T01:13:52.192Z,100984.88
2022-09-22T01:19:35.047Z,100988.28
2022-09-22T01:25:27.823Z,100987.41
2022-09-22T01:31:02.305Z,100985.59
2022-09-22T01:36:42.121Z,100990.66
2022-09-22T01:42:10.246Z,100981.00
2022-09-22T01:47:53.277Z,100983.75
2022-09-22T01:53:18.802Z,100999.81
2022-09-22T01:58:49.852Z,100984.34
2022-09-22T02:04:18.449Z,100976.59
2022-09-22T02:09:42.404Z,100982.50
2022-09-22T02:15:08.448Z,100976.44
2022-09-22T02:20:30.363Z,100973.81
2022-09-22T02:25:54.407Z,100971.19
2022-09-22T02:31:20.761Z,100966.06
2022-09-22T02:37:03.980Z,100987.66
2022-09-22T02:42:31.224Z,100990.13
2022-09-22T02:48:09.045Z,100979.66
2022-09-22T02:53:33.259Z,100972.75
2022-09-22T02:58:58.297Z,100985.63
2022-09-22T03:04:20.521Z,100989.03
2022-09-22T03:09:42.285Z,100983.84
2022-09-22T03:15:04.407Z,100985.56
2022-09-22T03:20:26.239Z,100979.56
2022-09-22T03:25:47.996Z,100970.31
2022-09-22T03:31:11.292Z,100983.00
2022-09-22T03:36:33.097Z,100984.63
2022-09-22T03:41:54.941Z,100982.97
2022-09-22T03:47:16.825Z,100984.72
2022-09-22T03:52:38.601Z,100986.28
2022-09-22T03:58:00.380Z,100992.22
2022-09-22T04:03:22.161Z,100995.66
2022-09-22T04:08:43.980Z,100999.97
2022-09-22T04:14:05.754Z,100999.09
2022-09-22T04:19:27.521Z,100983.75
2022-09-22T04:24:49.299Z,100993.28
2022-09-22T04:30:11.570Z,100993.25
2022-09-22T04:35:33.440Z,100998.41
2022-09-22T04:40:55.260Z,100999.19
2022-09-22T04:46:17.207Z,101005.34
2022-09-22T04:51:39.100Z,100995.72
2022-09-22T04:57:00.899Z,100994.81
2022-09-22T05:02:22.740Z,100996.38
2022-09-22T05:07:50.299Z,101005.50
2022-09-22T05:13:12.231Z,101002.78
2022-09-22T05:18:35.253Z,101006.16
2022-09-22T05:23:57.277Z,101017.13
2022-09-22T05:29:19.131Z,101022.09
2022-09-22T05:34:41.239Z,101017.53
2022-09-22T05:40:04.165Z,101026.94
2022-09-22T05:45:26.140Z,101023.19
2022-09-22T05:50:47.999Z,101029.00
2022-09-22T05:56:09.801Z,101043.53
2022-09-22T06:01:31.665Z,101033.84
2022-09-22T06:06:53.603Z,101030.16
2022-09-22T06:12:15.823Z,101030.53
2022-09-22T06:17:37.643Z,101041.69
2022-09-22T06:22:59.599Z,101042.50
2022-09-22T06:28:21.390Z,101038.91
2022-09-22T06:33:43.182Z,101039.06
2022-09-22T06:39:05.088Z,101032.66
2022-09-22T06:44:26.912Z,101032.66
2022-09-22T06:49:48.700Z,101034.31
2022-09-22T06:55:10.554Z,101047.94
2022-09-22T07:00:32.591Z,101036.56
2022-09-22T07:05:57.379Z,101034.72
2022-09-22T07:11:19.546Z,101034.94
2022-09-22T07:16:41.457Z,101044.06
2022-09-22T07:22:03.359Z,101052.31
2022-09-22T07:27:25.198Z,101040.34
2022-09-22T07:32:46.988Z,101049.84
2022-09-22T07:38:08.805Z,101046.56
2022-09-22T07:43:31.281Z,101045.13
2022-09-22T07:48:53.070Z,101042.16
2022-09-22T07:54:15.753Z,101037.84
2022-09-22T07:59:37.568Z,101036.63
2022-09-22T08:04:59.345Z,101045.97
2022-09-22T08:10:21.116Z,101031.75
2022-09-22T08:15:43.043Z,101037.91
2022-09-22T08:21:05.890Z,101032.63
2022-09-22T08:26:27.646Z,101044.44
2022-09-22T08:31:49.696Z,101035.28
2022-09-22T08:37:11.606Z,101041.91
2022-09-22T08:42:33.793Z,101041.50
2022-09-22T08:48:03.194Z,101035.03
2022-09-22T08:53:26.832Z,101037.31
2022-09-22T08:59:00.784Z,101032.94
2022-09-22T09:04:41.322Z,101029.16
2022-09-22T09:10:09.133Z,101030.06
2022-09-22T09:16:04.880Z,101013.09
2022-09-22T09:21:28.554Z,101004.38
2022-09-22T09:26:50.556Z,101008.75
2022-09-22T09:32:22.664Z,101006.84
2022-09-22T09:37:49.150Z,101015.47
2022-09-22T09:43:11.074Z,101015.59
2022-09-22T09:48:55.345Z,101003.81
2022-09-22T09:54:18.672Z,101006.94
2022-09-22T09:59:46.706Z,100993.44
2022-09-22T10:05:21.536Z,101010.00
2022-09-22T10:10:44.598Z,101006.47
2022-09-22T10:16:24.175Z,100994.41
2022-09-22T10:21:46.410Z,101004.44
2022-09-22T10:27:20.803Z,101008.13
2022-09-22T10:33:22.783Z,100997.38
2022-09-22T10:38:44.597Z,100997.34
2022-09-22T10:44:38.116Z,101001.91
2022-09-22T10:50:31.097Z,100997.28
2022-09-22T10:56:03.690Z,101002.84
2022-09-22T11:02:01.634Z,101006.88
2022-09-22T11:07:54.391Z,100984.56
2022-09-22T11:13:33.761Z,100991.09
2022-09-22T11:19:03.127Z,100995.31
2022-09-22T11:24:41.029Z,100984.84
2022-09-22T11:30:14.457Z,100981.94
2022-09-22T11:36:12.175Z,100976.50
2022-09-22T11:41:40.866Z,100974.50
2022-09-22T11:47:27.469Z,100971.69
2022-09-22T11:52:52.053Z,100979.09
2022-09-22T11:58:26.521Z,100974.59
2022-09-22T12:03:55.463Z,100964.66
2022-09-22T12:09:25.471Z,100986.75
2022-09-22T12:14:58.125Z,100978.34
2022-09-22T12:20:26.287Z,100972.28
2022-09-22T12:25:56.397Z,100978.31
2022-09-22T12:31:19.340Z,100983.97
2022-09-22T12:36:42.393Z,100975.25
2022-09-22T12:42:35.166Z,100973.16
2022-09-22T12:48:00.574Z,100965.63
2022-09-22T12:53:22.302Z,100971.69
2022-09-22T12:58:44.601Z,100975.88
2022-09-22T13:04:15.411Z,100978.00
2022-09-22T13:09:37.227Z,100973.84
2022-09-22T13:15:09.891Z,100961.06
2022-09-22T13:20:33.896Z,100947.13
2022-09-22T13:26:08.335Z,100949.13
2022-09-22T13:31:56.231Z,100959.38
2022-09-22T13:37:23.176Z,100948.34
2022-09-22T13:42:45.056Z,100955.59
2022-09-22T13:48:10.309Z,100957.63
2022-09-22T13:53:32.367Z,100934.91
2022-09-22T13:58:58.666Z,100950.53
2022-09-22T14:04:25.881Z,100941.16
2022-09-22T14:09:48.713Z,100947.47
2022-09-22T14:15:47.222Z,100948.97
2022-09-22T14:21:10.342Z,100954.88
2022-09-22T14:26:37.751Z,100951.53
2022-09-22T14:32:13.021Z,100943.91
2022-09-22T14:37:45.228Z,100953.56
2022-09-22T14:43:23.328Z,100949.91
2022-09-22T14:48:45.344Z,100948.56
2022-09-22T14:54:16.303Z,100927.41
2022-09-22T14:59:38.462Z,100928.75
2022-09-22T15:05:02.625Z,100929.09
2022-09-22T15:10:32.484Z,100925.97
2022-09-22T15:15:54.348Z,100931.63
2022-09-22T15:21:16.222Z,100931.56
2022-09-22T15:26:38.868Z,100920.56
2022-09-22T15:32:00.728Z,100929.38
2022-09-22T15:37:23.060Z,100938.44
2022-09-22T15:43:02.510Z,100944.13
2022-09-22T15:48:31.298Z,100941.09
2022-09-22T15:53:53.100Z,100952.13
2022-09-22T15:59:23.672Z,100951.75
2022-09-22T16:04:45.446Z,100961.75
2022-09-22T16:10:12.026Z,100955.56
2022-09-22T16:15:33.806Z,100962.53
2022-09-22T16:21:15.929Z,100967.47
2022-09-22T16:26:39.968Z,100964.56
2022-09-22T16:32:01.876Z,100962.25
2022-09-22T16:37:23.789Z,100958.81
2022-09-22T16:42:46.028Z,100960.09
2022-09-22T16:48:07.821Z,100963.59
2022-09-22T16:53:29.588Z,100969.88
2022-09-22T16:58:52.444Z,100969.28
2022-09-22T17:04:16.369Z,100968.13
2022-09-22T17:09:38.204Z,100974.16
2022-09-22T17:15:00.232Z,100972.25
2022-09-22T17:20:22.064Z,100983.63
2022-09-22T17:25:46.407Z,100986.16
2022-09-22T17:31:08.409Z,100983.03
2022-09-22T17:36:30.341Z,100963.38
2022-09-22T17:41:52.576Z,100988.53
2022-09-22T17:47:14.376Z,100974.53
2022-09-22T17:52:36.217Z,100988.59
2022-09-22T17:57:57.998Z,100989.03
2022-09-22T18:03:19.791Z,100984.97
2022-09-22T18:08:42.766Z,101002.16
2022-09-22T18:14:04.666Z,101006.63
2022-09-22T18:19:27.141Z,101004.13
2022-09-22T18:24:50.049Z,101007.06
2022-09-22T18:30:15.777Z,101014.09
2022-09-22T18:35:38.000Z,101013.94
2022-09-22T18:40:59.998Z,101022.53
2022-09-22T18:46:22.120Z,101026.03
2022-09-22T18:51:46.407Z,101032.19
2022-09-22T18:57:08.828Z,101020.38
2022-09-22T19:02:31.931Z,101012.91
2022-09-22T19:07:53.900Z,101017.50
2022-09-22T19:13:15.686Z,101009.00
2022-09-22T19:18:37.464Z,101015.22
2022-09-22T19:23:59.504Z,101011.91
2022-09-22T19:29:21.546Z,101014.47
2022-09-22T19:34:43.433Z,101010.50
2022-09-22T19:40:06.528Z,101018.44
2022-09-22T19:45:28.784Z,101024.50
2022-09-22T19:50:50.606Z,101028.91
2022-09-22T19:56:12.416Z,101030.78
2022-09-22T20:01:37.526Z,101025.78
2022-09-22T20:06:59.377Z,101019.09
2022-09-22T20:12:21.154Z,101021.59
2022-09-22T20:17:44.831Z,101017.34
2022-09-22T20:23:08.904Z,101017.25
2022-09-22T20:28:30.862Z,101013.75
2022-09-22T20:33:52.928Z,101020.47
2022-09-22T20:39:14.934Z,101011.16
2022-09-22T20:44:37.080Z,101005.25
2022-09-22T20:49:58.950Z,101018.13
2022-09-22T20:55:20.896Z,101014.72
2022-09-22T21:00:48.024Z,101010.44
2022-09-22T21:06:11.671Z,101013.09
2022-09-22T21:11:33.613Z,101008.88
2022-09-22T21:16:55.409Z,101009.03
2022-09-22T21:22:17.861Z,101006.41
2022-09-22T21:27:39.723Z,101011.72
2022-09-22T21:33:01.607Z,101007.41
2022-09-22T21:38:23.377Z,101003.09
2022-09-22T21:43:45.447Z,101017.84
2022-09-22T21:49:08.273Z,101011.03
2022-09-22T21:54:30.130Z,101011.31
2022-09-22T21:59:54.930Z,101012.22
2022-09-22T22:05:18.471Z,101006.38
2022-09-22T22:10:42.116Z,101008.06
2022-09-22T22:16:05.238Z,101004.00
2022-09-22T22:21:29.195Z,101005.03
2022-09-22T22:26:52.196Z,100999.13
2022-09-22T22:32:14.026Z,100996.81
2022-09-22T22:37:35.819Z,100990.97
2022-09-22T22:42:57.631Z,100990.97
2022-09-22T22:48:19.478Z,100985.00
2022-09-22T22:53:42.140Z,100989.47
2022-09-22T22:59:03.961Z,100982.66
2022-09-22T23:04:25.720Z,100977.53
2022-09-22T23:09:47.531Z,100982.75
2022-09-22T23:15:09.625Z,100979.38
2022-09-22T23:20:31.510Z,100975.31
2022-09-22T23:25:53.416Z,100971.06
2022-09-22T23:31:20.428Z,100978.09
2022-09-22T23:36:42.322Z,100984.19
2022-09-22T23:42:04.189Z,100980.00
2022-09-22T23:47:25.967Z,100970.75
2022-09-22T23:52:47.761Z,100966.50
2022-09-22T23:58:10.565Z,100969.88
